Time;durP1;ratioP1;P1;durP2;ratioP2;P2;SDS_P1;SDS_P2;PMS_P1;PMS_P2;Temp;Humidity;BMP_temperature;BMP_pressure;BME280_temperature;BME280_humidity;BME280_pressure;Samples;Min_cycle;Max_cycle;Signal;HPM_P1;HPM_P2
2024/01/24 00:00:29;;;;;;;5.50;1.40;;;;;;;7.67;81.33;101694.27;108133;1284;22032;-58
2024/01/24 00:02:54;;;;;;;89.70;30.90;;;;;;;7.68;81.32;101694.10;108115;1278;21988;-60
2024/01/24 00:05:20;;;;;;;49.60;15.80;;;;;;;7.68;81.22;101699.70;108119;1280;21994;-58
2024/01/24 00:07:46;;;;;;;65.60;23.50;;;;;;;7.64;80.83;101701.52;108103;1288;21986;-58
2024/01/24 00:10:11;;;;;;;22.00;9.50;;;;;;;7.59;80.78;101705.61;108110;1276;21986;-57
2024/01/24 00:12:38;;;;;;;17.10;7.10;;;;;;;7.57;80.96;101703.81;108187;1283;21992;-60
2024/01/24 00:15:05;;;;;;;7.10;3.20;;;;;;;7.55;80.76;101703.77;108136;1287;21990;-60
2024/01/24 00:17:30;;;;;;;5.80;2.40;;;;;;;7.54;80.76;101697.13;108114;1288;22457;-58
2024/01/24 00:19:56;;;;;;;4.30;2.00;;;;;;;7.53;80.81;101696.91;108130;1287;21992;-60
2024/01/24 00:22:22;;;;;;;4.80;1.70;;;;;;;7.51;80.74;101696.53;108135;1283;21992;-60
2024/01/24 00:24:47;;;;;;;4.30;1.90;;;;;;;7.49;80.77;101694.58;108030;1288;21995;-60
2024/01/24 00:27:13;;;;;;;3.50;1.40;;;;;;;7.48;80.90;101695.76;108146;1287;21997;-57
2024/01/24 00:29:39;;;;;;;3.60;1.30;;;;;;;7.47;80.92;101697.30;108102;1288;22042;-60
2024/01/24 00:32:04;;;;;;;133.10;54.60;;;;;;;7.48;81.17;101695.95;108133;1280;21997;-59
2024/01/24 00:34:30;;;;;;;38.50;16.50;;;;;;;7.50;81.06;101694.77;108117;1277;22005;-61
2024/01/24 00:36:56;;;;;;;47.50;19.30;;;;;;;7.50;81.01;101694.40;108082;1288;21984;-57
2024/01/24 00:39:21;;;;;;;47.20;20.10;;;;;;;7.49;80.80;101692.13;108101;1280;22011;-57
2024/01/24 00:41:47;;;;;;;59.50;23.80;;;;;;;7.50;81.06;101691.10;108102;1288;21979;-60
2024/01/24 00:44:13;;;;;;;15.40;7.10;;;;;;;7.52;81.06;101687.48;108157;1278;21988;-60
2024/01/24 00:46:40;;;;;;;6.80;3.40;;;;;;;7.53;81.19;101688.35;108165;1288;21998;-60
2024/01/24 00:49:09;;;;;;;5.70;2.80;;;;;;;7.55;80.91;101690.15;108132;1286;23058;-59
2024/01/24 00:51:35;;;;;;;5.30;1.90;;;;;;;7.54;80.97;101689.09;108158;1288;22002;-60
2024/01/24 00:54:01;;;;;;;3.40;1.90;;;;;;;7.51;81.00;101689.36;108109;1288;22006;-58
2024/01/24 00:56:27;;;;;;;4.70;1.70;;;;;;;7.45;81.20;101689.25;108138;1288;22000;-57
2024/01/24 00:58:52;;;;;;;6.20;2.60;;;;;;;7.42;81.26;101687.27;108083;1284;21998;-60
2024/01/24 01:01:19;;;;;;;3.90;1.90;;;;;;;7.42;81.62;101682.89;108124;1284;22462;-57
2024/01/24 01:03:45;;;;;;;3.60;1.50;;;;;;;7.42;81.65;101679.93;108153;1288;22005;-57
2024/01/24 01:06:11;;;;;;;3.70;1.60;;;;;;;7.42;81.65;101675.02;108127;1278;21997;-61
2024/01/24 01:08:36;;;;;;;3.40;1.30;;;;;;;7.43;81.86;101670.52;108120;1288;21992;-61
2024/01/24 01:11:03;;;;;;;4.10;1.60;;;;;;;7.46;81.99;101660.64;108085;1288;21997;-59
2024/01/24 01:13:29;;;;;;;3.40;1.50;;;;;;;7.49;82.23;101663.15;108116;1287;21997;-61
2024/01/24 01:15:55;;;;;;;6.30;1.60;;;;;;;7.52;82.11;101662.31;108096;1282;21994;-60
2024/01/24 01:18:20;;;;;;;4.30;1.70;;;;;;;7.55;82.03;101662.73;108083;1284;21980;-61
2024/01/24 01:20:46;;;;;;;5.80;1.90;;;;;;;7.59;82.18;101659.67;108109;1277;21996;-58
2024/01/24 01:23:11;;;;;;;8.30;3.60;;;;;;;7.62;82.23;101661.13;108124;1277;22006;-58
2024/01/24 01:25:37;;;;;;;9.60;3.80;;;;;;;7.65;82.31;101663.64;108091;1287;22027;-58
2024/01/24 01:28:03;;;;;;;4.60;2.00;;;;;;;7.66;82.02;101665.40;108120;1280;22083;-58
2024/01/24 01:30:29;;;;;;;5.00;2.10;;;;;;;7.65;81.86;101662.76;108113;1280;24325;-60
2024/01/24 01:32:55;;;;;;;6.30;1.90;;;;;;;7.65;81.68;101663.10;108079;1284;21992;-60
2024/01/24 01:35:21;;;;;;;91.40;31.10;;;;;;;7.66;81.65;101663.14;107413;1277;1002488;-61
2024/01/24 01:37:46;;;;;;;52.10;21.30;;;;;;;7.66;81.62;101661.90;108084;1288;21995;-60
2024/01/24 01:40:12;;;;;;;60.60;28.60;;;;;;;7.65;81.46;101658.20;108113;1288;22004;-58
2024/01/24 01:42:46;;;;;;;31.20;16.30;;;;;;;7.63;81.49;101657.30;108119;1277;22000;-60
2024/01/24 01:45:12;;;;;;;8.60;4.00;;;;;;;7.65;81.55;101664.67;108136;1288;21996;-56
2024/01/24 01:47:38;;;;;;;6.90;3.20;;;;;;;7.65;81.33;101667.13;108095;1283;22319;-60
2024/01/24 01:50:06;;;;;;;6.60;2.40;;;;;;;7.62;81.23;101666.54;108075;1288;22010;-57
2024/01/24 01:52:32;;;;;;;6.60;2.80;;;;;;;7.60;81.02;101665.80;108101;1288;22037;-60
2024/01/24 01:54:58;;;;;;;5.40;2.30;;;;;;;7.56;80.90;101664.66;108113;1276;21987;-58
2024/01/24 01:57:23;;;;;;;5.80;2.00;;;;;;;7.50;80.98;101669.10;107275;1283;1004271;-58
2024/01/24 01:59:49;;;;;;;4.50;2.10;;;;;;;7.50;81.11;101664.21;108096;1288;22004;-58
2024/01/24 02:02:15;;;;;;;8.10;2.90;;;;;;;7.50;81.21;101656.00;107778;1288;21995;-59
2024/01/24 02:04:40;;;;;;;12.20;6.30;;;;;;;7.50;81.43;101656.17;107953;1288;22045;-58
2024/01/24 02:07:06;;;;;;;11.50;4.90;;;;;;;7.53;81.58;101660.92;108107;1287;21983;-60
2024/01/24 02:09:32;;;;;;;7.00;3.20;;;;;;;7.53;81.34;101659.55;108074;1284;21996;-57
2024/01/24 02:11:57;;;;;;;6.40;3.20;;;;;;;7.54;81.45;101656.95;108005;1283;21991;-58
2024/01/24 02:14:23;;;;;;;7.10;2.70;;;;;;;7.57;81.60;101654.73;107360;1285;1002302;-60
2024/01/24 02:16:48;;;;;;;7.60;3.50;;;;;;;7.60;81.85;101659.54;108111;1288;22056;-60
2024/01/24 02:19:14;;;;;;;5.60;2.30;;;;;;;7.64;82.00;101663.27;108119;1280;22004;-60
2024/01/24 02:21:40;;;;;;;6.00;3.30;;;;;;;7.66;81.82;101666.27;108116;1276;21999;-60
2024/01/24 02:24:13;;;;;;;7.30;2.90;;;;;;;7.65;81.56;101664.84;108112;1283;21977;-61
2024/01/24 02:26:38;;;;;;;5.10;2.40;;;;;;;7.65;81.57;101667.66;108105;1288;22233;-61
2024/01/24 02:29:04;;;;;;;5.20;2.10;;;;;;;7.65;81.56;101663.81;108125;1280;21990;-58
2024/01/24 02:31:30;;;;;;;5.40;2.20;;;;;;;7.65;81.46;101661.70;108155;1277;22073;-61
2024/01/24 02:33:56;;;;;;;4.50;2.00;;;;;;;7.64;81.43;101658.89;108110;1288;22037;-58
2024/01/24 02:36:21;;;;;;;5.10;2.00;;;;;;;7.66;81.57;101661.58;108155;1284;21993;-59
2024/01/24 02:38:49;;;;;;;5.40;2.40;;;;;;;7.69;81.85;101656.37;108135;1288;21992;-61
2024/01/24 02:41:17;;;;;;;5.20;2.10;;;;;;;7.71;81.94;101656.25;108155;1280;21997;-60
2024/01/24 02:43:42;;;;;;;8.00;2.30;;;;;;;7.74;81.87;101656.30;108129;1286;21989;-58
2024/01/24 02:46:08;;;;;;;5.40;2.20;;;;;;;7.76;81.77;101654.05;108132;1280;21984;-58
2024/01/24 02:48:34;;;;;;;5.70;2.20;;;;;;;7.77;81.68;101650.94;107401;1278;1002295;-60
2024/01/24 02:50:59;;;;;;;4.10;1.80;;;;;;;7.77;81.56;101657.23;108100;1286;21985;-60
2024/01/24 02:53:25;;;;;;;7.10;2.00;;;;;;;7.77;81.63;101654.06;108190;1277;22034;-57
2024/01/24 02:55:50;;;;;;;5.80;2.10;;;;;;;7.77;81.68;101651.11;108198;1286;22001;-58
2024/01/24 02:58:16;;;;;;;6.20;2.00;;;;;;;7.80;81.41;101658.84;108297;1284;21989;-61
2024/01/24 03:00:41;;;;;;;5.00;2.10;;;;;;;7.79;81.15;101663.05;108318;1281;21988;-60
2024/01/24 03:03:07;;;;;;;7.50;2.40;;;;;;;7.79;81.27;101662.71;108216;1277;21986;-58
2024/01/24 03:05:33;;;;;;;3.90;1.80;;;;;;;7.78;80.93;101661.11;108238;1284;21988;-59
2024/01/24 03:07:58;;;;;;;5.30;2.30;;;;;;;7.73;80.60;101662.57;108087;1286;23997;-60
2024/01/24 03:10:25;;;;;;;6.60;2.70;;;;;;;7.66;80.34;101663.48;108170;1286;21986;-61
2024/01/24 03:12:52;;;;;;;5.90;2.80;;;;;;;7.62;80.67;101665.14;108211;1286;22020;-60
2024/01/24 03:15:18;;;;;;;4.90;2.40;;;;;;;7.61;80.80;101667.58;108281;1276;21991;-61
2024/01/24 03:17:43;;;;;;;5.10;2.10;;;;;;;7.61;80.91;101665.13;108174;1277;21992;-61
2024/01/24 03:20:11;;;;;;;6.50;2.30;;;;;;;7.61;80.88;101667.92;108099;1274;21997;-61
2024/01/24 03:22:37;;;;;;;6.40;2.10;;;;;;;7.58;80.36;101666.30;108307;1278;22827;-61
2024/01/24 03:25:03;;;;;;;5.00;2.00;;;;;;;7.57;80.54;101665.22;108244;1277;21987;-60
2024/01/24 03:27:28;;;;;;;5.80;2.20;;;;;;;7.58;80.79;101671.17;108153;1274;22019;-59
2024/01/24 03:29:55;;;;;;;6.80;2.20;;;;;;;7.54;80.47;101672.66;108092;1286;22024;-58
2024/01/24 03:32:20;;;;;;;3.20;1.70;;;;;;;7.42;80.15;101672.94;108337;1284;21995;-57
2024/01/24 03:34:56;;;;;;;6.50;2.40;;;;;;;7.32;80.23;101666.60;108187;1284;21997;-58
2024/01/24 03:37:22;;;;;;;4.20;2.30;;;;;;;7.26;80.59;101661.60;108143;1286;21990;-58
2024/01/24 03:39:47;;;;;;;5.40;1.90;;;;;;;7.24;80.92;101655.62;108095;1286;21993;-60
2024/01/24 03:42:13;;;;;;;5.10;2.10;;;;;;;7.26;81.26;101651.30;108059;1286;21989;-62
2024/01/24 03:44:39;;;;;;;6.30;2.00;;;;;;;7.30;81.45;101657.30;108120;1288;21994;-57
2024/01/24 03:47:05;;;;;;;5.70;1.90;;;;;;;7.34;81.84;101653.73;108097;1281;22029;-59
2024/01/24 03:49:31;;;;;;;9.30;3.30;;;;;;;7.39;82.05;101650.52;108003;1280;21990;-61
2024/01/24 03:51:56;;;;;;;5.50;2.90;;;;;;;7.40;81.80;101654.21;108096;1288;21999;-62
2024/01/24 03:54:22;;;;;;;7.00;2.90;;;;;;;7.37;81.48;101655.37;108118;1288;21993;-62
2024/01/24 03:56:48;;;;;;;6.00;2.90;;;;;;;7.34;81.41;101653.90;108116;1277;21987;-58
2024/01/24 03:59:14;;;;;;;6.10;2.80;;;;;;;7.31;81.49;101657.33;108108;1283;21994;-59
2024/01/24 04:01:39;;;;;;;6.30;3.10;;;;;;;7.25;81.24;101662.09;108102;1288;21989;-63
2024/01/24 04:04:05;;;;;;;6.70;2.90;;;;;;;7.21;81.23;101663.23;108138;1277;21994;-62
2024/01/24 04:06:31;;;;;;;6.60;2.90;;;;;;;7.21;81.03;101660.09;108088;1288;22009;-59
2024/01/24 04:08:56;;;;;;;5.50;3.20;;;;;;;7.22;81.17;101664.12;108072;1287;22096;-61
2024/01/24 04:11:22;;;;;;;7.60;3.00;;;;;;;7.21;81.19;101671.25;108120;1285;22035;-62
2024/01/24 04:13:52;;;;;;;7.00;2.90;;;;;;;7.20;81.15;101684.51;108083;1276;21989;-59
2024/01/24 04:16:18;;;;;;;4.90;2.90;;;;;;;7.23;81.17;101684.41;108171;1287;21990;-62
2024/01/24 04:18:44;;;;;;;5.60;2.70;;;;;;;7.27;81.41;101677.35;108133;1283;21993;-58
2024/01/24 04:21:09;;;;;;;7.50;3.20;;;;;;;7.29;81.52;101674.23;107361;1288;1002480;-63
2024/01/24 04:23:35;;;;;;;10.00;4.60;;;;;;;7.29;81.28;101666.37;107377;1283;1002464;-62
2024/01/24 04:26:04;;;;;;;7.90;4.30;;;;;;;7.31;81.00;101666.23;107335;1287;1003098;-58
2024/01/24 04:28:33;;;;;;;7.30;4.20;;;;;;;7.32;80.89;101667.30;108110;1277;21996;-62
2024/01/24 04:30:59;;;;;;;8.20;3.60;;;;;;;7.32;80.84;101666.61;108061;1284;23546;-59
2024/01/24 04:33:24;;;;;;;8.30;4.10;;;;;;;7.33;81.10;101664.19;107438;1288;1003058;-59
2024/01/24 04:35:50;;;;;;;6.60;3.10;;;;;;;7.33;81.02;101659.13;107974;1288;22004;-63
2024/01/24 04:38:16;;;;;;;9.70;3.10;;;;;;;7.33;81.29;101657.38;108090;1287;22015;-62
2024/01/24 04:40:42;;;;;;;8.00;2.90;;;;;;;7.36;81.85;101658.30;108088;1286;21985;-61
2024/01/24 04:43:07;;;;;;;7.50;3.10;;;;;;;7.39;81.91;101662.39;108092;1277;22020;-61
2024/01/24 04:45:33;;;;;;;10.30;2.60;;;;;;;7.41;82.25;101656.33;108116;1286;21989;-62
2024/01/24 04:47:59;;;;;;;6.20;2.90;;;;;;;7.45;82.34;101657.64;108234;1286;21990;-58
2024/01/24 04:50:27;;;;;;;8.30;3.70;;;;;;;7.49;82.39;101662.60;108252;1286;21988;-57
2024/01/24 04:52:53;;;;;;;12.40;3.60;;;;;;;7.50;82.35;101663.16;108155;1286;22014;-61
2024/01/24 04:55:18;;;;;;;5.70;3.00;;;;;;;7.49;82.17;101665.23;108197;1281;21989;-61
2024/01/24 04:57:44;;;;;;;16.60;7.00;;;;;;;7.46;81.52;101668.13;108114;1286;21996;-58
2024/01/24 05:00:11;;;;;;;11.20;4.60;;;;;;;7.38;80.77;101670.59;108161;1286;21983;-58
2024/01/24 05:02:37;;;;;;;7.50;3.90;;;;;;;7.32;80.85;101673.77;108149;1274;22021;-62
2024/01/24 05:05:06;;;;;;;7.30;3.90;;;;;;;7.27;81.14;101673.14;108096;1284;21985;-61
2024/01/24 05:07:35;;;;;;;6.60;3.50;;;;;;;7.27;81.27;101672.44;108196;1284;21989;-59
2024/01/24 05:10:01;;;;;;;8.90;4.90;;;;;;;7.26;81.11;101675.39;108101;1281;21973;-58
2024/01/24 05:12:27;;;;;;;14.50;6.10;;;;;;;7.23;80.88;101680.55;108238;1285;21990;-62
2024/01/24 05:14:52;;;;;;;65.10;25.10;;;;;;;7.17;80.61;101683.03;108118;1284;22017;-63
2024/01/24 05:17:18;;;;;;;38.00;16.80;;;;;;;7.13;80.90;101685.59;108118;1286;22090;-58
2024/01/24 05:19:43;;;;;;;16.60;8.00;;;;;;;7.16;81.50;101690.70;108151;1286;22046;-63
2024/01/24 05:22:12;;;;;;;13.10;5.30;;;;;;;7.19;81.85;101686.41;108193;1286;21988;-60
2024/01/24 05:24:44;;;;;;;12.50;6.10;;;;;;;7.19;81.57;101676.27;107390;1286;1002921;-63
2024/01/24 05:27:09;;;;;;;15.70;6.30;;;;;;;7.18;81.50;101674.85;108109;1286;22024;-59
2024/01/24 05:29:35;;;;;;;14.10;6.60;;;;;;;7.19;81.96;101673.48;108081;1280;22047;-59
2024/01/24 05:32:01;;;;;;;16.40;5.50;;;;;;;7.23;82.24;101671.13;108073;1286;21987;-63
2024/01/24 05:34:26;;;;;;;14.30;6.20;;;;;;;7.26;82.36;101674.36;108075;1281;21957;-62
2024/01/24 05:36:53;;;;;;;9.80;4.70;;;;;;;7.29;82.40;101671.61;108116;1286;21989;-62
2024/01/24 05:39:19;;;;;;;11.80;5.80;;;;;;;7.31;82.47;101675.67;108014;1286;21956;-62
2024/01/24 05:41:45;;;;;;;9.60;4.90;;;;;;;7.32;82.25;101676.73;108062;1281;22045;-62
2024/01/24 05:44:11;;;;;;;9.00;4.20;;;;;;;7.32;81.89;101673.06;108057;1286;22005;-58
2024/01/24 05:46:36;;;;;;;12.60;4.70;;;;;;;7.29;81.45;101669.52;108083;1283;21989;-60
2024/01/24 05:49:02;;;;;;;7.20;4.00;;;;;;;7.27;81.44;101678.04;108070;1288;22011;-58
2024/01/24 05:51:27;;;;;;;12.50;5.40;;;;;;;7.21;80.84;101678.77;108068;1277;22012;-61
2024/01/24 05:53:53;;;;;;;10.70;4.90;;;;;;;7.14;80.68;101676.17;108092;1280;22002;-61
2024/01/24 05:56:22;;;;;;;8.00;4.60;;;;;;;7.10;81.12;101672.42;108075;1283;21986;-58
2024/01/24 05:58:47;;;;;;;11.50;4.50;;;;;;;7.07;81.16;101667.80;108107;1288;22013;-58
2024/01/24 06:01:13;;;;;;;22.10;11.30;;;;;;;7.06;81.49;101668.65;108116;1278;21986;-62
2024/01/24 06:03:41;;;;;;;12.50;7.80;;;;;;;7.04;81.12;101673.16;108136;1277;22001;-61
2024/01/24 06:06:06;;;;;;;10.20;5.80;;;;;;;6.98;80.34;101668.13;108167;1288;21987;-58
2024/01/24 06:08:32;;;;;;;9.10;5.60;;;;;;;6.92;79.94;101663.27;108070;1283;22048;-58
2024/01/24 06:10:58;;;;;;;13.50;7.00;;;;;;;6.87;79.81;101660.36;108152;1283;22008;-58
2024/01/24 06:13:24;;;;;;;11.20;5.20;;;;;;;6.82;79.48;101659.56;108182;1288;21991;-61
2024/01/24 06:15:51;;;;;;;7.20;3.90;;;;;;;6.78;79.45;101665.20;108159;1288;21995;-63
2024/01/24 06:18:17;;;;;;;8.00;4.20;;;;;;;6.73;79.45;101664.73;108135;1288;22003;-62
2024/01/24 06:20:42;;;;;;;10.20;4.80;;;;;;;6.67;79.18;101664.08;108167;1284;22000;-62
2024/01/24 06:23:08;;;;;;;8.20;5.00;;;;;;;6.62;79.21;101665.88;108111;1283;21987;-58
2024/01/24 06:25:33;;;;;;;8.30;4.20;;;;;;;6.58;79.35;101670.83;108097;1276;22003;-61
2024/01/24 06:27:59;;;;;;;6.00;3.90;;;;;;;6.54;79.65;101667.96;108091;1277;23060;-62
2024/01/24 06:30:25;;;;;;;6.80;3.00;;;;;;;6.51;79.70;101663.18;108122;1284;22002;-59
2024/01/24 06:32:51;;;;;;;6.80;3.20;;;;;;;6.49;79.89;101662.61;108117;1288;21979;-62
2024/01/24 06:35:17;;;;;;;7.60;3.80;;;;;;;6.49;79.77;101659.80;108101;1277;21976;-58
2024/01/24 06:37:42;;;;;;;8.40;5.40;;;;;;;6.50;80.04;101658.77;108130;1277;22035;-59
2024/01/24 06:40:09;;;;;;;8.60;4.60;;;;;;;6.52;80.07;101654.29;108126;1287;21989;-62
2024/01/24 06:42:37;;;;;;;10.90;4.90;;;;;;;6.53;80.17;101655.73;108111;1276;21994;-58
2024/01/24 06:45:03;;;;;;;9.60;5.10;;;;;;;6.54;80.38;101655.58;108070;1286;21992;-59
2024/01/24 06:47:29;;;;;;;9.60;4.90;;;;;;;6.55;80.62;101656.28;108148;1286;22315;-59
2024/01/24 06:49:54;;;;;;;9.70;5.10;;;;;;;6.53;80.45;101654.16;108088;1281;21990;-62
2024/01/24 06:52:20;;;;;;;7.40;4.40;;;;;;;6.53;80.45;101648.21;108154;1277;21994;-62
2024/01/24 06:54:45;;;;;;;6.30;3.90;;;;;;;6.52;80.38;101641.05;108261;1284;21986;-58
2024/01/24 06:57:11;;;;;;;9.10;4.30;;;;;;;6.53;80.16;101644.39;108200;1286;22006;-62
2024/01/24 06:59:36;;;;;;;9.00;5.50;;;;;;;6.54;80.12;101648.06;108282;1282;21987;-61
2024/01/24 07:02:03;;;;;;;10.90;5.70;;;;;;;6.54;80.51;101643.20;108147;1280;21987;-62
2024/01/24 07:04:29;;;;;;;10.00;5.90;;;;;;;6.57;80.66;101643.95;108240;1286;22001;-59
2024/01/24 07:06:55;;;;;;;9.30;5.80;;;;;;;6.61;81.04;101642.48;107358;1274;1002633;-63
2024/01/24 07:09:20;;;;;;;18.30;11.00;;;;;;;6.66;81.52;101638.24;107393;1286;1003261;-59
2024/01/24 07:11:46;;;;;;;14.20;8.20;;;;;;;6.74;81.97;101644.19;107395;1286;1002503;-61
2024/01/24 07:14:14;;;;;;;10.90;5.70;;;;;;;6.83;82.97;101641.80;108082;1286;21995;-61
2024/01/24 07:16:42;;;;;;;7.80;4.60;;;;;;;6.95;83.90;101641.55;108246;1286;21991;-62
2024/01/24 07:19:08;;;;;;;11.80;4.20;;;;;;;7.09;85.69;101637.67;108152;1282;21976;-58
2024/01/24 07:21:34;;;;;;;14.70;5.60;;;;;;;7.24;85.76;101633.45;108088;1286;21988;-58
2024/01/24 07:23:59;;;;;;;7.60;3.20;;;;;;;7.36;85.94;101635.27;108173;1286;21992;-59
2024/01/24 07:26:25;;;;;;;8.30;3.40;;;;;;;7.49;86.08;101637.11;108160;1286;21990;-59
2024/01/24 07:28:51;;;;;;;7.50;3.90;;;;;;;7.61;86.63;101636.98;108228;1286;21994;-61
2024/01/24 07:31:17;;;;;;;10.90;3.60;;;;;;;7.72;86.40;101636.34;108136;1280;21989;-58
2024/01/24 07:33:43;;;;;;;6.80;3.50;;;;;;;7.79;85.81;101633.32;108179;1286;21995;-61
2024/01/24 07:36:09;;;;;;;7.00;3.20;;;;;;;7.87;86.13;101632.61;108201;1286;21961;-59
2024/01/24 07:38:34;;;;;;;7.70;3.90;;;;;;;7.98;86.27;101628.79;108099;1286;22008;-59
2024/01/24 07:41:00;;;;;;;7.50;2.80;;;;;;;8.09;86.08;101625.84;108128;1286;21991;-61
2024/01/24 07:43:25;;;;;;;8.80;3.60;;;;;;;8.15;85.60;101621.24;108120;1274;21992;-61
2024/01/24 07:45:51;;;;;;;5.10;2.80;;;;;;;8.24;85.52;101619.11;108016;1286;131273;-62
2024/01/24 07:48:17;;;;;;;6.00;3.30;;;;;;;8.35;85.97;101621.73;108133;1283;21977;-60
2024/01/24 07:50:42;;;;;;;6.80;3.80;;;;;;;8.46;86.29;101624.05;108173;1286;21999;-59
2024/01/24 07:53:11;;;;;;;6.90;3.70;;;;;;;8.51;85.53;101619.41;108100;1285;21993;-62
2024/01/24 07:55:37;;;;;;;8.10;4.00;;;;;;;8.50;84.80;101621.14;108104;1284;22451;-61
2024/01/24 07:58:03;;;;;;;5.30;3.30;;;;;;;8.49;84.73;101623.39;108159;1275;21992;-62
2024/01/24 08:00:30;;;;;;;6.20;3.80;;;;;;;8.50;84.83;101630.06;108170;1279;21989;-62
2024/01/24 08:02:58;;;;;;;7.00;4.20;;;;;;;8.57;85.42;101636.65;108163;1283;21986;-60
2024/01/24 08:05:23;;;;;;;7.40;3.50;;;;;;;8.62;85.13;101638.83;108143;1276;21991;-59
2024/01/24 08:07:50;;;;;;;10.50;4.20;;;;;;;8.66;85.11;101637.33;108137;1280;21996;-62
2024/01/24 08:10:16;;;;;;;10.30;5.40;;;;;;;8.70;84.74;101641.24;108141;1284;22021;-59
2024/01/24 08:12:41;;;;;;;10.70;5.40;;;;;;;8.79;85.11;101648.91;108295;1276;21999;-62
2024/01/24 08:15:09;;;;;;;9.80;4.60;;;;;;;8.88;85.28;101647.11;108146;1284;21986;-62
2024/01/24 08:17:36;;;;;;;9.30;4.90;;;;;;;9.01;85.55;101641.00;108157;1286;23926;-59
2024/01/24 08:20:04;;;;;;;15.10;6.90;;;;;;;9.14;86.01;101638.56;108176;1277;21988;-62
2024/01/24 08:22:30;;;;;;;9.40;5.80;;;;;;;9.27;85.74;101638.02;108159;1284;23112;-62
2024/01/24 08:24:56;;;;;;;10.70;5.90;;;;;;;9.37;85.65;101634.13;108133;1286;21992;-59
2024/01/24 08:27:22;;;;;;;12.50;7.20;;;;;;;9.49;85.85;101632.52;108186;1286;21984;-62
2024/01/24 08:29:48;;;;;;;12.40;7.30;;;;;;;9.54;84.56;101629.95;108125;1286;21990;-61
2024/01/24 08:32:14;;;;;;;15.50;9.60;;;;;;;9.53;83.83;101623.10;108120;1280;21995;-61
2024/01/24 08:34:39;;;;;;;13.50;7.90;;;;;;;9.54;83.78;101621.02;108136;1286;21987;-59
2024/01/24 08:37:05;;;;;;;15.00;8.40;;;;;;;9.54;84.02;101626.28;108100;1286;22004;-59
2024/01/24 08:39:32;;;;;;;16.20;8.50;;;;;;;9.52;83.86;101622.04;108218;1277;21989;-59
2024/01/24 08:41:58;;;;;;;15.10;7.90;;;;;;;9.59;84.81;101611.09;108257;1286;21992;-59
2024/01/24 08:44:24;;;;;;;10.80;7.30;;;;;;;9.73;85.13;101610.54;108246;1284;21983;-61
2024/01/24 08:46:50;;;;;;;16.70;9.00;;;;;;;9.84;85.28;101618.02;108105;1280;22207;-59
2024/01/24 08:49:16;;;;;;;16.10;9.50;;;;;;;9.93;84.72;101616.36;108159;1286;21989;-61
2024/01/24 08:51:42;;;;;;;21.40;11.10;;;;;;;10.04;85.09;101614.54;108118;1286;22011;-60
2024/01/24 08:54:08;;;;;;;17.30;11.00;;;;;;;10.20;85.87;101607.49;108134;1286;21994;-62
2024/01/24 08:56:34;;;;;;;24.00;12.90;;;;;;;10.34;85.56;101605.34;108161;1280;22003;-60
2024/01/24 08:58:59;;;;;;;18.20;10.80;;;;;;;10.41;84.70;101608.05;108166;1286;22001;-60
2024/01/24 09:01:26;;;;;;;20.50;12.00;;;;;;;10.44;84.16;101609.65;108110;1273;21983;-61
2024/01/24 09:03:51;;;;;;;29.10;16.60;;;;;;;10.37;82.61;101611.50;108090;1286;21997;-60
2024/01/24 09:06:18;;;;;;;22.30;13.00;;;;;;;10.26;81.71;101614.38;108180;1286;22452;-62
2024/01/24 09:08:44;;;;;;;27.40;15.10;;;;;;;10.11;81.26;101613.91;108214;1286;22044;-60
2024/01/24 09:11:10;;;;;;;25.90;14.90;;;;;;;9.99;81.07;101612.91;108280;1286;21986;-61
2024/01/24 09:13:35;;;;;;;31.00;15.80;;;;;;;9.95;82.32;101608.31;108245;1273;22026;-61
2024/01/24 09:16:01;;;;;;;21.20;10.40;;;;;;;9.96;82.41;101601.84;108145;1286;22102;-62
2024/01/24 09:18:27;;;;;;;19.40;10.60;;;;;;;9.90;82.16;101596.00;108171;1286;21990;-61
2024/01/24 09:20:53;;;;;;;17.60;9.80;;;;;;;9.90;82.08;101597.05;108141;1286;22001;-61
2024/01/24 09:23:18;;;;;;;18.00;9.60;;;;;;;9.87;81.65;101589.13;108096;1286;21997;-58
2024/01/24 09:25:44;;;;;;;21.00;10.70;;;;;;;9.89;82.90;101582.13;108149;1286;22021;-60
2024/01/24 09:28:10;;;;;;;21.60;12.30;;;;;;;9.99;83.49;101579.94;108139;1286;22048;-58
2024/01/24 09:30:36;;;;;;;16.10;9.60;;;;;;;9.99;82.34;101579.42;108125;1286;21995;-60
2024/01/24 09:33:04;;;;;;;18.10;9.80;;;;;;;9.93;81.97;101573.58;108143;1286;21998;-59
2024/01/24 09:35:30;;;;;;;18.70;8.30;;;;;;;9.85;81.98;101568.94;108158;1279;22000;-59
2024/01/24 09:37:55;;;;;;;14.20;8.70;;;;;;;9.92;83.74;101562.00;108133;1286;21980;-59
2024/01/24 09:40:21;;;;;;;15.40;9.30;;;;;;;10.05;84.56;101554.58;108105;1286;21998;-58
2024/01/24 09:42:46;;;;;;;16.50;11.10;;;;;;;10.16;83.55;101551.86;108090;1286;21990;-61
2024/01/24 09:45:17;;;;;;;19.40;11.00;;;;;;;10.26;82.17;101549.48;108107;1286;21991;-60
2024/01/24 09:47:43;;;;;;;15.90;9.80;;;;;;;10.30;82.20;101547.23;108092;1286;21999;-58
2024/01/24 09:50:09;;;;;;;17.10;10.10;;;;;;;10.33;82.03;101542.16;108129;1286;21984;-58
2024/01/24 09:52:35;;;;;;;14.10;9.30;;;;;;;10.35;81.90;101533.94;108169;1286;21948;-62
2024/01/24 09:55:04;;;;;;;17.90;8.60;;;;;;;10.35;81.13;101528.84;108189;1286;22081;-59
2024/01/24 09:57:31;;;;;;;15.20;9.30;;;;;;;10.38;80.71;101522.55;108243;1286;21991;-59
2024/01/24 09:59:57;;;;;;;16.30;9.30;;;;;;;10.36;80.33;101516.06;108152;1286;21989;-58
2024/01/24 10:02:25;;;;;;;19.20;10.00;;;;;;;10.25;78.45;101511.05;108114;1286;21995;-58
2024/01/24 10:04:51;;;;;;;15.10;8.90;;;;;;;10.15;78.27;101506.42;108135;1284;21987;-58
2024/01/24 10:07:16;;;;;;;13.30;8.80;;;;;;;9.99;77.94;101497.88;107912;1286;21990;-59
2024/01/24 10:09:42;;;;;;;15.00;9.00;;;;;;;9.96;78.93;101491.02;108224;1286;21997;-59
2024/01/24 10:12:09;;;;;;;14.20;8.60;;;;;;;9.89;79.03;101487.30;108056;1286;22029;-60
2024/01/24 10:14:34;;;;;;;14.60;9.30;;;;;;;9.85;79.28;101478.14;108358;1283;22161;-62
2024/01/24 10:17:00;;;;;;;15.90;9.80;;;;;;;9.81;79.65;101467.41;108096;1286;21996;-61
2024/01/24 10:19:27;;;;;;;17.80;10.30;;;;;;;9.83;79.65;101461.30;108290;1286;21998;-62
2024/01/24 10:21:53;;;;;;;16.00;9.20;;;;;;;9.88;80.36;101451.35;108139;1286;22015;-62
2024/01/24 10:24:19;;;;;;;16.40;10.10;;;;;;;9.94;80.99;101448.05;108128;1286;21986;-61
2024/01/24 10:26:44;;;;;;;17.80;10.30;;;;;;;9.95;79.93;101448.06;108140;1286;21993;-62
2024/01/24 10:29:13;;;;;;;16.50;10.50;;;;;;;10.05;80.32;101447.95;108083;1286;21991;-59
2024/01/24 10:31:39;;;;;;;15.10;10.70;;;;;;;10.17;80.31;101442.25;108092;1286;21970;-62
2024/01/24 10:34:05;;;;;;;17.30;11.30;;;;;;;10.16;78.83;101439.08;108122;1286;22002;-59
2024/01/24 10:36:32;;;;;;;17.80;11.40;;;;;;;10.17;78.01;101438.73;108178;1286;22099;-62
2024/01/24 10:39:00;;;;;;;16.70;11.00;;;;;;;10.33;79.46;101434.45;108087;1286;21984;-62
2024/01/24 10:41:36;;;;;;;18.90;10.50;;;;;;;10.55;79.93;101433.55;108094;1286;22030;-62
2024/01/24 10:44:07;;;;;;;14.10;9.10;;;;;;;10.79;80.79;101428.73;108081;1286;21994;-59
2024/01/24 10:46:33;;;;;;;;;;;;;;;10.98;79.68;101421.94;108064;1286;21976;-62
2024/01/24 10:48:58;;;;;;;17.90;11.00;;;;;;;10.97;76.22;101420.89;108062;1286;22004;-61
2024/01/24 10:51:24;;;;;;;17.70;10.30;;;;;;;10.97;75.98;101421.23;107867;1286;22029;-59
2024/01/24 10:53:50;;;;;;;15.60;9.60;;;;;;;11.04;76.14;101418.96;108093;1286;21994;-61
2024/01/24 10:56:16;;;;;;;12.90;8.20;;;;;;;11.06;75.78;101416.34;108085;1286;21984;-60
2024/01/24 10:58:42;;;;;;;15.10;9.10;;;;;;;11.16;75.95;101413.02;108056;1283;23049;-59
2024/01/24 11:01:08;;;;;;;15.60;9.70;;;;;;;11.23;75.25;101408.28;108154;1286;22270;-62
2024/01/24 11:03:34;;;;;;;14.70;9.30;;;;;;;11.31;74.08;101402.48;108126;1286;22720;-61
2024/01/24 11:06:01;;;;;;;15.10;8.70;;;;;;;11.39;73.78;101389.50;108099;1286;24079;-60
2024/01/24 11:08:35;;;;;;;13.30;7.20;;;;;;;11.53;73.79;101378.79;108204;1286;23049;-62
2024/01/24 11:11:03;;;;;;;14.10;9.40;;;;;;;11.60;73.39;101371.05;108104;1283;21990;-62
2024/01/24 11:13:29;;;;;;;13.70;8.90;;;;;;;11.72;74.25;101361.02;108034;1286;21987;-60